Cliffdell, Washington
Current Conditions -  °F | °C
As of 10:53 PM on Wednesday 26 Nov 2014 (Local Time) from KYKM Reporting Station
Haze Haze  
Wind Chill:   Ceiling: Unl
Heat Index:   Visibility: 4mi
Dew Point:   Wind: 5mph
Humidity: 89%   Direction: NA
Pressure: 29.95"   Gusts: NA
Location:  46.6628°N, 121.193°W
Report Text: KYKM 270653Z AUTO VRB04KT 4SM BR FEW070 03/01 A2995 RMK AO2 SLP148 T00280011 $
Loading
Personal Weather Stations






























Interactive Weather Map New forecast layout! Learn more

10-Day Weather Forecast

Advertisements
Track Severe Weather on mobile